Time;durP1;ratioP1;P1;durP2;ratioP2;P2;SDS_P1;SDS_P2;PMS_P1;PMS_P2;Temp;Humidity;BMP_temperature;BMP_pressure;BME280_temperature;BME280_humidity;BME280_pressure;Samples;Min_cycle;Max_cycle;Signal;HPM_P1;HPM_P2
2022/07/03 00:01:39;;;;;;;4.82;3.15;;;18.00;99.90;;;;;;5019300;28;20525;-65
2022/07/03 00:04:04;;;;;;;4.70;3.53;;;18.00;99.90;;;;;;5023410;28;20103;-64
2022/07/03 00:06:32;;;;;;;4.80;3.53;;;18.00;99.90;;;;;;5028906;28;20515;-63
2022/07/03 00:09:03;;;;;;;4.65;3.40;;;17.90;99.90;;;;;;5026961;28;20380;-64
2022/07/03 00:11:29;;;;;;;5.20;3.53;;;17.90;99.90;;;;;;5031090;28;20045;-63
2022/07/03 00:13:55;;;;;;;4.90;3.72;;;17.90;99.90;;;;;;5029745;28;20132;-65
2022/07/03 00:16:21;;;;;;;6.43;3.42;;;17.90;99.90;;;;;;5021578;28;20117;-63
2022/07/03 00:18:46;;;;;;;7.38;3.95;;;17.80;99.90;;;;;;5025834;28;20038;-63
2022/07/03 00:21:19;;;;;;;6.03;3.92;;;17.80;99.90;;;;;;5019635;28;20049;-65
2022/07/03 00:23:51;;;;;;;4.50;3.28;;;17.80;99.90;;;;;;5028789;28;20077;-63
2022/07/03 00:26:19;;;;;;;;;;;17.80;99.90;;;;;;5022748;28;20037;-63
2022/07/03 00:28:45;;;;;;;6.10;3.50;;;17.70;99.90;;;;;;5025563;28;19920;-63
2022/07/03 00:31:12;;;;;;;6.10;3.45;;;17.70;99.90;;;;;;5024266;28;20041;-63
2022/07/03 00:33:38;;;;;;;7.25;4.43;;;17.70;99.90;;;;;;5027768;28;20041;-63
2022/07/03 00:36:04;;;;;;;6.43;3.80;;;17.60;99.90;;;;;;5018516;28;20037;-65
2022/07/03 00:38:30;;;;;;;5.78;3.65;;;17.60;99.90;;;;;;5024308;28;20038;-64
2022/07/03 00:40:56;;;;;;;5.50;3.80;;;17.50;99.90;;;;;;5014357;28;20104;-63
2022/07/03 00:43:24;;;;;;;6.60;3.60;;;17.50;99.90;;;;;;5021306;28;20048;-63
2022/07/03 00:45:50;;;;;;;4.85;3.50;;;17.50;99.90;;;;;;5018233;28;20107;-63
2022/07/03 00:48:18;;;;;;;6.30;3.42;;;17.40;99.90;;;;;;5024244;28;20042;-64
2022/07/03 00:50:49;;;;;;;7.40;3.95;;;17.40;99.90;;;;;;5020512;28;20049;-63
2022/07/03 00:53:27;;;;;;;5.22;3.83;;;17.40;99.90;;;;;;5036106;28;20046;-63
2022/07/03 00:55:54;;;;;;;4.40;3.65;;;17.30;99.90;;;;;;5036450;28;20041;-66
2022/07/03 00:58:20;;;;;;;5.18;3.63;;;17.30;99.90;;;;;;5018654;28;20034;-63
2022/07/03 01:00:49;;;;;;;5.03;3.53;;;17.20;99.90;;;;;;5017608;28;20092;-63
2022/07/03 01:03:19;;;;;;;5.05;3.63;;;17.20;99.90;;;;;;5025786;28;20442;-63
2022/07/03 01:05:52;;;;;;;5.85;3.88;;;17.10;99.90;;;;;;5029701;28;20455;-63
2022/07/03 01:08:46;;;;;;;6.40;3.88;;;17.10;99.90;;;;;;5021776;28;20048;-63
2022/07/03 01:11:36;;;;;;;5.72;3.80;;;17.10;99.90;;;;;;5029785;28;20447;-64
2022/07/03 01:14:07;;;;;;;6.25;4.10;;;17.00;99.90;;;;;;5019457;28;20444;-64
2022/07/03 01:16:48;;;;;;;8.65;4.18;;;17.00;99.90;;;;;;5021854;28;20068;-65
2022/07/03 01:19:37;;;;;;;5.65;4.13;;;17.00;99.90;;;;;;5018489;28;20042;-63
2022/07/03 01:22:32;;;;;;;6.05;4.03;;;16.90;99.90;;;;;;5024471;28;20173;-62
2022/07/03 01:25:09;;;;;;;4.90;3.60;;;16.80;99.90;;;;;;5018151;28;20045;-64
2022/07/03 01:27:53;;;;;;;6.07;4.00;;;16.80;99.90;;;;;;5012954;28;20073;-63
2022/07/03 01:30:22;;;;;;;5.32;3.72;;;16.80;99.90;;;;;;5021616;28;20034;-65
2022/07/03 01:33:12;;;;;;;6.38;4.15;;;16.80;99.90;;;;;;5020527;28;20081;-64
2022/07/03 01:35:40;;;;;;;7.10;3.70;;;16.70;99.90;;;;;;5019881;28;20476;-64
2022/07/03 01:38:12;;;;;;;6.93;3.80;;;16.70;99.90;;;;;;5027032;28;20081;-64
2022/07/03 01:40:40;;;;;;;5.18;3.58;;;16.70;99.90;;;;;;5023806;28;20563;-64
2022/07/03 01:43:11;;;;;;;7.55;3.78;;;16.70;99.90;;;;;;5027714;28;20618;-64
2022/07/03 01:45:43;;;;;;;4.82;3.67;;;16.60;99.90;;;;;;5032335;28;20056;-63
2022/07/03 01:48:11;;;;;;;7.18;3.58;;;16.60;99.90;;;;;;5029547;28;20041;-63
2022/07/03 01:50:38;;;;;;;6.82;3.80;;;16.50;99.90;;;;;;5032423;28;20411;-63
2022/07/03 01:53:07;;;;;;;6.25;3.75;;;16.50;99.90;;;;;;5033088;28;20064;-65
2022/07/03 01:55:34;;;;;;;6.72;4.10;;;16.50;99.90;;;;;;5027023;28;20053;-64
2022/07/03 01:58:00;;;;;;;5.78;4.13;;;16.40;99.90;;;;;;5019095;28;20038;-64
2022/07/03 02:00:27;;;;;;;5.18;3.92;;;16.40;99.90;;;;;;5023462;28;20049;-64
2022/07/03 02:02:58;;;;;;;9.07;4.13;;;16.40;99.90;;;;;;5029067;28;20036;-64
2022/07/03 02:05:29;;;;;;;7.38;3.90;;;16.30;99.90;;;;;;5023702;28;20049;-64
2022/07/03 02:08:23;;;;;;;4.47;4.07;;;16.30;99.90;;;;;;5027918;28;20053;-64
2022/07/03 02:11:13;;;;;;;5.18;4.10;;;16.30;99.90;;;;;;5029804;28;20045;-64
2022/07/03 02:13:53;;;;;;;6.43;4.00;;;16.20;99.90;;;;;;5014205;28;20447;-64
2022/07/03 02:16:23;;;;;;;5.28;3.85;;;16.20;99.90;;;;;;5025938;28;20046;-64
2022/07/03 02:19:09;;;;;;;6.18;4.28;;;16.10;99.90;;;;;;5039353;28;20357;-64
2022/07/03 02:21:45;;;;;;;5.47;4.05;;;16.10;99.90;;;;;;5027199;28;20136;-64
2022/07/03 02:24:38;;;;;;;6.13;3.88;;;16.00;99.90;;;;;;5025844;28;20172;-64
2022/07/03 02:27:05;;;;;;;5.28;4.05;;;15.90;99.90;;;;;;5026511;28;20037;-64
2022/07/03 02:29:41;;;;;;;6.10;3.97;;;15.90;99.90;;;;;;5024055;28;20548;-64
2022/07/03 02:32:30;;;;;;;6.32;4.47;;;15.90;99.90;;;;;;5027587;28;20067;-64
2022/07/03 02:35:02;;;;;;;8.30;5.22;;;15.90;99.90;;;;;;5029215;28;20107;-64
2022/07/03 02:37:32;;;;;;;;;;;15.90;99.90;;;;;;5028397;28;20044;-64
2022/07/03 02:40:07;;;;;;;5.95;4.57;;;15.90;99.90;;;;;;5041067;28;20287;-64
2022/07/03 02:42:55;;;;;;;7.72;4.70;;;15.90;99.90;;;;;;5024648;28;20044;-64
2022/07/03 02:45:24;;;;;;;7.55;4.97;;;15.90;99.90;;;;;;5031221;28;20038;-64
2022/07/03 02:48:08;;;;;;;6.18;4.80;;;15.90;99.90;;;;;;5017937;28;20060;-64
2022/07/03 02:50:37;;;;;;;7.18;5.20;;;15.90;99.90;;;;;;5038080;28;20437;-64
2022/07/03 02:53:15;;;;;;;6.18;4.90;;;15.80;99.90;;;;;;5030653;28;20038;-64
2022/07/03 02:55:45;;;;;;;8.40;5.20;;;15.80;99.90;;;;;;5030673;28;20041;-64
2022/07/03 02:58:13;;;;;;;6.03;5.03;;;15.80;99.90;;;;;;5028297;28;20033;-64
2022/07/03 03:00:46;;;;;;;7.00;5.07;;;15.80;99.90;;;;;;5025147;28;20504;-64
2022/07/03 03:03:12;;;;;;;6.53;5.03;;;15.70;99.90;;;;;;5025037;28;20064;-64
2022/07/03 03:05:45;;;;;;;8.02;5.60;;;15.70;99.90;;;;;;5026382;28;20128;-64
2022/07/03 03:08:45;;;;;;;6.93;5.20;;;15.60;99.90;;;;;;5028179;28;20088;-64
2022/07/03 03:11:27;;;;;;;6.97;5.25;;;15.60;99.90;;;;;;5020372;28;20045;-64
2022/07/03 03:13:56;;;;;;;6.10;5.00;;;15.50;99.90;;;;;;5023187;28;20054;-64
2022/07/03 03:16:23;;;;;;;7.85;5.63;;;15.50;99.90;;;;;;5028358;28;20092;-64
2022/07/03 03:18:48;;;;;;;7.18;5.18;;;15.50;99.90;;;;;;5025827;28;20091;-64
2022/07/03 03:21:17;;;;;;;8.43;5.82;;;15.40;99.90;;;;;;5038487;28;20029;-64
2022/07/03 03:23:50;;;;;;;7.03;5.45;;;15.40;99.90;;;;;;5014730;28;20404;-64
2022/07/03 03:26:24;;;;;;;8.07;5.68;;;15.40;99.90;;;;;;5024948;28;20057;-64
2022/07/03 03:28:51;;;;;;;6.75;5.68;;;15.40;99.90;;;;;;5019968;28;20106;-64
2022/07/03 03:31:18;;;;;;;6.30;5.68;;;15.40;99.90;;;;;;5016638;28;20056;-64
2022/07/03 03:33:46;;;;;;;6.60;5.07;;;15.40;99.90;;;;;;5019315;28;20056;-64
2022/07/03 03:36:17;;;;;;;7.07;5.40;;;15.40;99.90;;;;;;5020089;28;20036;-65
2022/07/03 03:38:45;;;;;;;6.72;5.97;;;15.40;99.90;;;;;;5018564;28;20043;-65
2022/07/03 03:41:11;;;;;;;6.88;5.60;;;15.40;99.90;;;;;;5013600;28;20045;-65
2022/07/03 03:43:37;;;;;;;8.07;5.75;;;15.40;99.90;;;;;;5023782;28;20037;-65
2022/07/03 03:46:03;;;;;;;11.13;5.88;;;15.40;99.90;;;;;;5019132;28;20070;-65
2022/07/03 03:48:34;;;;;;;7.68;5.45;;;15.40;99.90;;;;;;5023697;28;20037;-65
2022/07/03 03:51:00;;;;;;;7.00;6.20;;;15.40;99.90;;;;;;5028286;28;20037;-65
2022/07/03 03:53:27;;;;;;;7.25;5.95;;;15.40;99.90;;;;;;5018303;28;20132;-65
2022/07/03 03:56:14;;;;;;;9.27;6.32;;;15.50;99.90;;;;;;5023337;28;20415;-65
2022/07/03 03:58:41;;;;;;;9.13;6.63;;;15.40;99.90;;;;;;5011918;28;20053;-65
2022/07/03 04:01:08;;;;;;;7.03;6.32;;;15.50;99.90;;;;;;5013069;28;20045;-65
2022/07/03 04:03:35;;;;;;;8.07;6.32;;;15.40;99.90;;;;;;5016953;28;20056;-65
2022/07/03 04:06:01;;;;;;;7.32;6.30;;;15.50;99.90;;;;;;5022443;28;20385;-65
2022/07/03 04:08:27;;;;;;;6.97;6.00;;;15.50;99.90;;;;;;5025754;28;20084;-66
2022/07/03 04:10:54;;;;;;;7.00;6.05;;;15.50;99.90;;;;;;5024181;28;20095;-65
2022/07/03 04:13:19;;;;;;;7.90;6.15;;;15.50;99.90;;;;;;5031890;28;20096;-65
2022/07/03 04:15:46;;;;;;;7.88;6.13;;;15.50;99.90;;;;;;5023215;28;20496;-66
2022/07/03 04:18:11;;;;;;;7.90;5.95;;;15.50;99.90;;;;;;5029883;28;20037;-65
2022/07/03 04:20:37;;;;;;;8.55;5.93;;;15.50;99.90;;;;;;5022256;28;20087;-65
2022/07/03 04:23:03;;;;;;;8.70;5.85;;;15.50;99.90;;;;;;5019871;28;20049;-65
2022/07/03 04:25:29;;;;;;;7.38;6.07;;;15.50;99.90;;;;;;5022335;28;20447;-65
2022/07/03 04:27:55;;;;;;;7.25;6.18;;;15.50;99.90;;;;;;5023779;28;20049;-65
2022/07/03 04:30:21;;;;;;;7.55;5.95;;;15.50;99.90;;;;;;5028783;28;20176;-65
2022/07/03 04:32:47;;;;;;;11.52;6.45;;;15.50;99.90;;;;;;5029041;28;20044;-65
2022/07/03 04:35:13;;;;;;;9.25;7.10;;;15.50;99.90;;;;;;5019848;28;20038;-65
2022/07/03 04:37:39;;;;;;;7.80;6.50;;;15.50;99.90;;;;;;5019118;28;20511;-65
2022/07/03 04:40:05;;;;;;;8.13;6.75;;;15.40;99.90;;;;;;5029476;28;20069;-65
2022/07/03 04:42:31;;;;;;;10.13;7.32;;;15.50;99.90;;;;;;5024042;28;20133;-65
2022/07/03 04:44:56;;;;;;;7.63;6.80;;;15.50;99.90;;;;;;5028739;28;20136;-65
2022/07/03 04:47:22;;;;;;;10.15;6.63;;;15.50;99.90;;;;;;5029359;28;20045;-65
2022/07/03 04:49:48;;;;;;;7.35;6.65;;;15.50;99.90;;;;;;5023810;28;20484;-66
2022/07/03 04:52:13;;;;;;;8.05;6.82;;;15.40;99.90;;;;;;5022443;28;20148;-65
2022/07/03 04:54:39;;;;;;;7.80;6.80;;;15.50;99.90;;;;;;5020691;28;20045;-65
2022/07/03 04:57:05;;;;;;;8.98;7.03;;;15.40;99.90;;;;;;5027108;28;20061;-65
2022/07/03 04:59:31;;;;;;;8.45;6.80;;;15.40;99.90;;;;;;5019912;28;20042;-65
2022/07/03 05:01:56;;;;;;;9.88;7.07;;;15.40;99.90;;;;;;5030015;28;20037;-65
2022/07/03 05:04:22;;;;;;;7.55;6.75;;;15.40;99.90;;;;;;5017477;28;20120;-65
2022/07/03 05:06:48;;;;;;;8.90;7.43;;;15.40;99.90;;;;;;5031748;28;20042;-65
2022/07/03 05:09:14;;;;;;;7.88;7.07;;;15.40;99.90;;;;;;5027347;28;20025;-65
2022/07/03 05:11:40;;;;;;;9.77;7.28;;;15.40;99.90;;;;;;5028929;28;20037;-65
2022/07/03 05:14:07;;;;;;;9.70;7.43;;;15.40;99.90;;;;;;5022959;28;20046;-65
2022/07/03 05:16:33;;;;;;;8.55;7.53;;;15.50;99.90;;;;;;5027541;28;20029;-65
2022/07/03 05:18:59;;;;;;;8.88;7.10;;;15.40;99.90;;;;;;5029591;28;20048;-65
2022/07/03 05:21:28;;;;;;;11.07;7.53;;;15.50;99.90;;;;;;5033591;28;20046;-65
2022/07/03 05:23:53;;;;;;;9.57;7.70;;;15.50;99.90;;;;;;5031343;28;20124;-65
2022/07/03 05:26:19;;;;;;;8.30;7.38;;;15.60;99.90;;;;;;5026001;28;20473;-65
2022/07/03 05:28:45;;;;;;;8.57;7.15;;;15.60;99.90;;;;;;5037157;28;20045;-66
2022/07/03 05:31:10;;;;;;;8.85;7.95;;;15.70;99.90;;;;;;5032017;28;20037;-65
2022/07/03 05:33:37;;;;;;;8.75;7.70;;;15.70;99.90;;;;;;5028964;28;20452;-65
2022/07/03 05:36:03;;;;;;;11.32;8.43;;;15.70;99.90;;;;;;5029959;28;20037;-65
2022/07/03 05:41:13;;;;;;;11.35;9.43;;;15.90;99.90;;;;;;5034301;28;20041;-65
2022/07/03 05:43:39;;;;;;;10.68;8.73;;;15.90;99.90;;;;;;5018972;28;20046;-66
2022/07/03 05:46:05;;;;;;;12.38;10.05;;;16.00;99.90;;;;;;5018291;28;20043;-65
2022/07/03 05:48:30;;;;;;;12.45;9.55;;;16.10;99.90;;;;;;5034397;28;20067;-64
2022/07/03 05:50:56;;;;;;;10.75;8.73;;;16.10;99.90;;;;;;5037563;28;20116;-64
2022/07/03 05:53:22;;;;;;;12.82;8.00;;;16.20;99.90;;;;;;5020315;28;20293;-65
2022/07/03 05:55:48;;;;;;;9.95;8.05;;;16.30;99.90;;;;;;5025622;28;20041;-66
2022/07/03 05:58:13;;;;;;;9.05;7.35;;;16.40;99.90;;;;;;5020193;28;20080;-65
2022/07/03 06:00:39;;;;;;;9.43;6.82;;;16.50;99.90;;;;;;5025915;28;20034;-65
2022/07/03 06:03:05;;;;;;;8.50;7.40;;;16.60;99.90;;;;;;5030614;28;20041;-65
2022/07/03 06:05:32;;;;;;;10.98;7.03;;;16.60;99.90;;;;;;5029208;28;20053;-65
2022/07/03 06:07:58;;;;;;;7.75;6.93;;;16.70;99.90;;;;;;5030873;28;20045;-66
2022/07/03 06:10:24;;;;;;;9.82;6.60;;;16.80;99.90;;;;;;5032753;28;20415;-65
2022/07/03 06:12:50;;;;;;;8.50;7.03;;;16.80;99.90;;;;;;5024591;28;20046;-65
2022/07/03 06:15:15;;;;;;;8.23;6.75;;;16.90;99.90;;;;;;5030753;28;20041;-65
2022/07/03 06:17:41;;;;;;;7.53;6.45;;;16.90;99.90;;;;;;5031266;28;20125;-65
2022/07/03 06:20:07;;;;;;;10.35;6.13;;;17.00;99.90;;;;;;5023192;28;20036;-65
2022/07/03 06:22:33;;;;;;;9.60;5.70;;;17.10;99.90;;;;;;5021019;28;20535;-65
2022/07/03 06:24:59;;;;;;;9.00;5.38;;;17.10;99.90;;;;;;5031275;28;20087;-65
2022/07/03 06:27:25;;;;;;;8.27;5.40;;;17.20;99.90;;;;;;5028792;28;20291;-65
2022/07/03 06:29:51;;;;;;;9.02;5.13;;;17.30;99.90;;;;;;5018022;28;20091;-66
2022/07/03 06:32:17;;;;;;;7.28;4.40;;;17.40;99.90;;;;;;5014875;28;20051;-66
2022/07/03 06:34:43;;;;;;;7.47;4.47;;;17.40;99.90;;;;;;5029629;28;20084;-65
2022/07/03 06:37:09;;;;;;;8.02;4.32;;;17.50;99.90;;;;;;5033007;28;20065;-65
2022/07/03 06:39:35;;;;;;;6.47;4.22;;;17.60;99.90;;;;;;5030823;28;20037;-65
2022/07/03 06:42:01;;;;;;;7.82;4.28;;;17.70;99.90;;;;;;5020300;28;20569;-66
2022/07/03 06:44:27;;;;;;;6.47;4.00;;;17.80;99.90;;;;;;5019824;28;20063;-65
2022/07/03 06:46:52;;;;;;;6.80;4.13;;;17.90;99.90;;;;;;5014613;28;20041;-65
2022/07/03 06:49:18;;;;;;;5.35;3.25;;;18.00;99.90;;;;;;5028880;28;20053;-66
2022/07/03 06:51:44;;;;;;;5.72;3.22;;;18.00;99.90;;;;;;5024550;28;20084;-66
2022/07/03 06:54:09;;;;;;;6.80;3.25;;;18.10;99.90;;;;;;5030442;28;20566;-65
2022/07/03 06:56:36;;;;;;;4.95;2.60;;;18.10;99.90;;;;;;5031927;28;20107;-66
2022/07/03 06:59:02;;;;;;;5.50;2.67;;;18.10;99.90;;;;;;5026855;28;20424;-65
2022/07/03 07:01:28;;;;;;;5.60;2.90;;;18.20;99.90;;;;;;5027412;28;20071;-66
2022/07/03 07:03:53;;;;;;;5.78;2.60;;;18.30;99.90;;;;;;5015718;28;20404;-65
2022/07/03 07:06:19;;;;;;;6.53;2.70;;;18.30;99.90;;;;;;5026417;28;20484;-65
2022/07/03 07:08:46;;;;;;;5.13;2.58;;;18.40;99.90;;;;;;5024707;28;20049;-65
2022/07/03 07:11:11;;;;;;;6.18;2.83;;;18.40;99.90;;;;;;5030503;28;20033;-66
2022/07/03 07:13:37;;;;;;;6.15;2.92;;;18.50;99.90;;;;;;5028756;28;20037;-65
2022/07/03 07:16:03;;;;;;;6.55;3.17;;;18.50;99.90;;;;;;5018557;28;20046;-65
2022/07/03 07:18:29;;;;;;;6.05;3.30;;;18.50;99.90;;;;;;5028401;28;20041;-65
2022/07/03 07:20:54;;;;;;;6.63;3.47;;;18.50;99.90;;;;;;5024780;28;20049;-66
2022/07/03 07:23:20;;;;;;;5.82;2.60;;;18.60;99.90;;;;;;5025290;28;20316;-66
2022/07/03 07:25:46;;;;;;;4.93;2.20;;;18.60;99.90;;;;;;5024016;28;20175;-65
2022/07/03 07:28:11;;;;;;;3.72;2.03;;;18.60;99.90;;;;;;5021854;28;20084;-65
2022/07/03 07:30:39;;;;;;;3.40;1.60;;;18.60;99.90;;;;;;5026670;28;20119;-66
2022/07/03 07:33:05;;;;;;;2.53;1.60;;;18.70;99.90;;;;;;5035704;28;20045;-65
2022/07/03 07:35:31;;;;;;;7.60;1.92;;;18.80;99.90;;;;;;5015699;28;20068;-65
2022/07/03 07:37:57;;;;;;;6.80;2.00;;;18.80;99.90;;;;;;5025393;28;20119;-66
2022/07/03 07:40:22;;;;;;;4.38;1.98;;;18.80;99.90;;;;;;5020572;28;20472;-65
2022/07/03 07:42:48;;;;;;;4.30;2.10;;;18.90;99.90;;;;;;5029867;28;20495;-65
2022/07/03 07:45:13;;;;;;;4.38;1.70;;;18.90;99.90;;;;;;5020037;28;20132;-64
2022/07/03 07:47:39;;;;;;;3.97;1.70;;;19.00;99.90;;;;;;5017618;28;20143;-65
2022/07/03 07:50:05;;;;;;;2.38;1.77;;;19.10;99.90;;;;;;5028828;28;20050;-65
2022/07/03 07:52:31;;;;;;;3.00;1.70;;;19.20;99.90;;;;;;5017867;28;20049;-65
2022/07/03 07:54:57;;;;;;;4.60;1.77;;;19.30;99.90;;;;;;5031639;28;20041;-65
2022/07/03 07:57:22;;;;;;;3.78;1.80;;;19.40;99.90;;;;;;5025884;28;20060;-65
2022/07/03 07:59:48;;;;;;;5.82;2.38;;;19.40;99.90;;;;;;5024129;28;20091;-65
2022/07/03 08:07:41;;;;;;;6.85;1.90;;;19.50;99.90;;;;;;5024910;28;20073;-65
2022/07/03 08:10:07;;;;;;;3.75;1.85;;;19.50;99.90;;;;;;5021992;28;20476;-65
2022/07/03 08:12:33;;;;;;;4.72;1.67;;;19.50;99.90;;;;;;5027275;28;20041;-65
2022/07/03 08:14:59;;;;;;;4.20;1.80;;;19.50;99.90;;;;;;5020246;28;20115;-65
2022/07/03 08:17:24;;;;;;;4.80;1.88;;;19.60;99.90;;;;;;5022227;28;20566;-65
2022/07/03 08:19:50;;;;;;;5.93;2.20;;;19.60;99.90;;;;;;5025613;28;20484;-65
2022/07/03 08:22:15;;;;;;;4.07;1.80;;;19.70;99.90;;;;;;5024513;28;20477;-66
2022/07/03 08:24:41;;;;;;;5.05;1.90;;;19.80;99.90;;;;;;5023522;28;20041;-65
2022/07/03 08:27:07;;;;;;;4.30;1.60;;;20.00;99.90;;;;;;5026733;28;20393;-65
2022/07/03 08:29:32;;;;;;;4.65;1.88;;;20.20;99.90;;;;;;5028128;28;20041;-65
2022/07/03 08:31:58;;;;;;;6.28;2.00;;;20.30;99.90;;;;;;5020290;28;20049;-65
2022/07/03 08:34:24;;;;;;;5.28;2.00;;;20.30;99.90;;;;;;5021778;28;20049;-65
2022/07/03 08:36:49;;;;;;;3.70;1.65;;;20.30;99.90;;;;;;5029778;28;20033;-66
2022/07/03 08:39:15;;;;;;;3.97;1.70;;;20.30;99.90;;;;;;5022056;28;20048;-65
2022/07/03 08:41:41;;;;;;;4.90;1.90;;;20.60;99.90;;;;;;5030266;28;20033;-65
2022/07/03 08:44:12;;;;;;;4.30;1.90;;;21.00;99.90;;;;;;5022088;28;20481;-65
2022/07/03 08:46:40;;;;;;;5.05;2.00;;;21.40;99.90;;;;;;5022182;28;20045;-66
2022/07/03 08:49:10;;;;;;;4.75;1.77;;;21.60;99.90;;;;;;5022984;28;20050;-66
2022/07/03 08:51:36;;;;;;;2.33;1.25;;;21.90;99.90;;;;;;5033039;28;20045;-66
2022/07/03 08:54:02;;;;;;;3.33;1.38;;;22.10;99.90;;;;;;5019216;28;20141;-65
2022/07/03 08:56:28;;;;;;;2.08;1.20;;;22.30;99.90;;;;;;5018734;28;20042;-66
2022/07/03 08:58:57;;;;;;;3.22;1.50;;;22.40;99.90;;;;;;5022165;28;20038;-65
2022/07/03 09:01:23;;;;;;;3.92;1.20;;;22.50;99.90;;;;;;5030452;28;20049;-64
2022/07/03 09:03:50;;;;;;;3.67;1.30;;;22.60;99.90;;;;;;5020289;28;20117;-64
2022/07/03 09:06:16;;;;;;;3.35;1.48;;;22.60;99.60;;;;;;5024482;28;20045;-64
2022/07/03 09:08:43;;;;;;;5.30;1.63;;;22.70;99.80;;;;;;5031627;28;20046;-66
2022/07/03 09:11:10;;;;;;;4.25;1.40;;;22.80;99.70;;;;;;5025147;28;20083;-63
2022/07/03 09:13:36;;;;;;;3.75;1.33;;;22.80;99.10;;;;;;5023336;28;20054;-69
2022/07/03 09:16:01;;;;;;;3.50;1.70;;;22.90;98.30;;;;;;5022691;28;20409;-63
2022/07/03 09:18:42;;;;;;;2.20;1.20;;;23.00;97.80;;;;;;5022168;28;20492;-64
2022/07/03 09:21:10;;;;;;;2.83;1.38;;;23.20;94.80;;;;;;5029253;28;20100;-64
2022/07/03 09:23:38;;;;;;;4.15;1.20;;;23.20;96.30;;;;;;5029278;28;20129;-68
2022/07/03 09:26:04;;;;;;;1.38;1.10;;;23.40;96.00;;;;;;5021722;28;20486;-64
2022/07/03 09:28:51;;;;;;;3.22;1.45;;;23.50;95.60;;;;;;5035171;28;20488;-64
2022/07/03 09:31:22;;;;;;;2.15;1.10;;;23.60;93.30;;;;;;5014746;28;20511;-67
2022/07/03 09:34:01;;;;;;;2.33;1.20;;;23.50;94.80;;;;;;5029643;28;20397;-64
2022/07/03 09:36:42;;;;;;;2.80;1.20;;;23.70;93.90;;;;;;5020923;28;20042;-64
2022/07/03 09:39:23;;;;;;;3.03;1.30;;;23.90;92.30;;;;;;5030690;28;20040;-64
2022/07/03 09:41:59;;;;;;;;;;;23.90;92.30;;;;;;5004666;28;20555;-64
2022/07/03 09:44:29;;;;;;;2.35;1.30;;;24.00;92.40;;;;;;5020794;28;19917;-69
2022/07/03 09:47:19;;;;;;;3.90;1.30;;;24.20;93.20;;;;;;5018591;28;20054;-69
2022/07/03 09:50:00;;;;;;;2.95;1.20;;;24.30;90.80;;;;;;5021427;28;20048;-64
2022/07/03 09:52:25;;;;;;;4.55;1.50;;;24.40;90.70;;;;;;5025621;28;20420;-65
2022/07/03 09:54:51;;;;;;;2.13;1.20;;;24.40;92.60;;;;;;5022559;28;20041;-69
2022/07/03 09:57:17;;;;;;;2.25;1.02;;;24.40;92.10;;;;;;5019033;28;20037;-64
2022/07/03 09:59:43;;;;;;;2.55;1.20;;;24.50;91.70;;;;;;5032254;28;20056;-66
2022/07/03 10:02:09;;;;;;;4.43;1.33;;;24.60;92.00;;;;;;5022114;28;20038;-64
2022/07/03 10:04:34;;;;;;;3.65;1.33;;;24.60;92.60;;;;;;5023894;28;20435;-64
2022/07/03 10:07:00;;;;;;;3.60;1.13;;;24.90;92.80;;;;;;5027227;28;20037;-64
2022/07/03 10:09:32;;;;;;;3.13;1.30;;;25.10;91.90;;;;;;5029772;28;20071;-64
2022/07/03 10:11:58;;;;;;;;;;;25.00;90.20;;;;;;5033195;28;20052;-69
2022/07/03 10:14:29;;;;;;;2.55;1.10;;;24.80;85.80;;;;;;5019918;28;19925;-67
2022/07/03 10:16:59;;;;;;;5.18;1.38;;;24.70;90.40;;;;;;5018884;28;20120;-64
2022/07/03 10:19:39;;;;;;;3.97;1.25;;;24.60;90.10;;;;;;5018807;28;20403;-64
2022/07/03 10:22:18;;;;;;;2.58;1.25;;;24.80;89.50;;;;;;5027127;28;20423;-64
2022/07/03 10:24:47;;;;;;;2.55;1.10;;;25.00;88.70;;;;;;5030671;28;20041;-66
2022/07/03 10:27:14;;;;;;;3.92;1.20;;;25.10;88.40;;;;;;5036006;28;20087;-65
2022/07/03 10:29:40;;;;;;;3.88;1.48;;;25.30;89.50;;;;;;5028450;28;20041;-67
2022/07/03 10:32:08;;;;;;;2.75;1.23;;;25.60;89.00;;;;;;5016415;28;20450;-66
2022/07/03 10:34:34;;;;;;;2.47;1.20;;;25.60;87.50;;;;;;5021364;28;20307;-64
2022/07/03 10:37:05;;;;;;;3.88;1.17;;;25.30;86.30;;;;;;5022646;28;20050;-64
2022/07/03 10:39:48;;;;;;;2.38;1.77;;;24.90;85.00;;;;;;5016472;28;20100;-65
2022/07/03 10:45:06;;;;;;;2.53;1.42;;;25.10;87.10;;;;;;5028165;28;20045;-64
2022/07/03 10:47:49;;;;;;;3.00;1.52;;;25.20;86.40;;;;;;5011138;28;20234;-64
2022/07/03 10:50:16;;;;;;;3.58;1.30;;;25.50;85.00;;;;;;5037456;28;20091;-66
2022/07/03 10:52:42;;;;;;;3.72;1.17;;;25.60;85.00;;;;;;5021998;28;20049;-64
2022/07/03 10:55:09;;;;;;;2.25;1.20;;;25.60;84.50;;;;;;5024191;28;20037;-65
2022/07/03 10:57:36;;;;;;;1.40;1.10;;;25.50;83.20;;;;;;5019257;28;20087;-64
2022/07/03 11:00:05;;;;;;;1.88;1.38;;;25.70;84.40;;;;;;5026743;28;20137;-64
2022/07/03 11:02:36;;;;;;;4.30;1.40;;;25.90;83.50;;;;;;5025045;28;20559;-65
2022/07/03 11:05:01;;;;;;;2.27;1.10;;;26.20;82.10;;;;;;5024278;28;20116;-64
2022/07/03 11:07:29;;;;;;;1.95;1.08;;;26.10;78.60;;;;;;5022183;28;20722;-66
2022/07/03 11:10:10;;;;;;;2.30;1.10;;;25.80;77.80;;;;;;5027392;28;20050;-64
2022/07/03 11:12:57;;;;;;;2.58;1.02;;;25.80;77.10;;;;;;5023842;28;20041;-65
2022/07/03 11:15:32;;;;;;;4.50;1.20;;;25.90;79.60;;;;;;5025414;28;20145;-64
2022/07/03 11:18:28;;;;;;;2.25;1.10;;;26.00;78.50;;;;;;5023196;28;20128;-65
2022/07/03 11:20:53;;;;;;;1.67;1.10;;;25.90;78.40;;;;;;5013273;28;20057;-69
2022/07/03 11:23:33;;;;;;;2.10;1.10;;;25.60;78.80;;;;;;5021312;28;20437;-64
2022/07/03 11:26:22;;;;;;;2.60;1.10;;;25.40;77.90;;;;;;5020008;28;20060;-69
2022/07/03 11:28:52;;;;;;;1.98;1.23;;;25.10;78.60;;;;;;5022860;28;20085;-65
2022/07/03 11:31:21;;;;;;;2.78;1.27;;;25.00;80.30;;;;;;5033863;28;20029;-65
2022/07/03 11:33:55;;;;;;;4.20;1.20;;;25.00;81.30;;;;;;5037149;28;20088;-64
2022/07/03 11:36:28;;;;;;;3.05;1.40;;;24.80;81.70;;;;;;5017512;28;20038;-64
2022/07/03 11:38:53;;;;;;;2.90;1.20;;;24.80;82.80;;;;;;5023838;28;20373;-70
2022/07/03 11:41:19;;;;;;;5.22;1.52;;;24.90;83.90;;;;;;5016796;28;20172;-64
2022/07/03 11:43:51;;;;;;;3.13;1.40;;;25.30;85.10;;;;;;5030199;28;20662;-64
2022/07/03 11:46:22;;;;;;;6.25;2.17;;;25.60;85.30;;;;;;5027018;28;20041;-65
2022/07/03 11:48:48;;;;;;;7.70;1.90;;;25.60;85.20;;;;;;5017562;28;20033;-64
2022/07/03 11:51:14;;;;;;;3.97;1.50;;;25.50;85.40;;;;;;5017633;28;20163;-64
2022/07/03 11:53:40;;;;;;;4.75;1.50;;;25.40;85.70;;;;;;5013193;28;20116;-64
2022/07/03 11:56:11;;;;;;;2.42;1.35;;;25.60;86.00;;;;;;5026482;28;20503;-66
2022/07/03 11:58:44;;;;;;;;;;;26.00;85.70;;;;;;5020907;28;20112;-65
2022/07/03 12:01:25;;;;;;;4.55;1.50;;;26.40;86.30;;;;;;5025230;28;19917;-64
2022/07/03 12:04:04;;;;;;;6.25;1.58;;;26.60;82.70;;;;;;5028177;28;20476;-64
2022/07/03 12:06:41;;;;;;;3.33;1.40;;;26.40;82.40;;;;;;5031023;28;20504;-64
2022/07/03 12:09:17;;;;;;;4.72;1.40;;;26.20;81.20;;;;;;5028849;28;20045;-65
2022/07/03 12:12:23;;;;;;;8.43;1.70;;;25.90;81.40;;;;;;5017170;28;20064;-67
2022/07/03 12:14:50;;;;;;;1.80;1.20;;;25.50;82.30;;;;;;4961693;28;20042;-64
2022/07/03 12:17:23;;;;;;;5.03;1.40;;;25.30;83.40;;;;;;5009493;28;20564;-65
2022/07/03 12:19:56;;;;;;;2.97;1.40;;;25.00;83.70;;;;;;5017368;28;20041;-64
2022/07/03 12:22:26;;;;;;;3.90;1.88;;;24.80;84.10;;;;;;5034583;28;20038;-64
2022/07/03 12:24:56;;;;;;;2.05;1.20;;;24.70;84.70;;;;;;5029371;28;20045;-64
2022/07/03 12:27:22;;;;;;;3.85;1.40;;;24.60;85.40;;;;;;5020717;28;20124;-66
2022/07/03 12:29:48;;;;;;;5.15;1.67;;;24.60;85.50;;;;;;5022929;28;20564;-65
2022/07/03 12:32:14;;;;;;;3.90;1.40;;;24.60;86.10;;;;;;5025698;28;20120;-65
2022/07/03 12:34:40;;;;;;;4.65;1.40;;;24.60;87.50;;;;;;5024931;28;20042;-64
2022/07/03 12:37:06;;;;;;;3.72;1.50;;;24.70;88.20;;;;;;5018317;28;20048;-66
2022/07/03 12:39:45;;;;;;;5.82;1.50;;;24.90;88.60;;;;;;5021656;28;20056;-64
2022/07/03 12:42:21;;;;;;;3.80;1.50;;;25.30;89.00;;;;;;5023271;28;20117;-64
2022/07/03 12:45:02;;;;;;;4.32;1.60;;;25.70;88.60;;;;;;5013843;28;20052;-64
2022/07/03 12:47:30;;;;;;;2.17;1.40;;;26.10;87.60;;;;;;5025192;28;20105;-64
2022/07/03 12:50:00;;;;;;;3.85;1.60;;;26.40;85.90;;;;;;5021026;28;20049;-64
2022/07/03 12:52:26;;;;;;;3.47;1.60;;;26.40;84.80;;;;;;5027143;28;20056;-68
2022/07/03 12:54:52;;;;;;;4.95;1.55;;;26.20;84.70;;;;;;5028657;28;20545;-69
2022/07/03 13:00:02;;;;;;;5.28;1.40;;;25.60;82.30;;;;;;5026203;28;20077;-66
2022/07/03 13:02:28;;;;;;;3.00;1.33;;;25.30;82.30;;;;;;5032993;28;20069;-64
2022/07/03 13:04:53;;;;;;;5.00;1.77;;;25.00;82.60;;;;;;5031091;28;25015;-64
2022/07/03 13:07:19;;;;;;;4.28;1.48;;;24.80;83.00;;;;;;5026746;28;20136;-64
2022/07/03 13:09:52;;;;;;;3.70;1.30;;;24.50;83.50;;;;;;5025314;28;20049;-64
2022/07/03 13:12:25;;;;;;;6.45;1.58;;;24.40;85.40;;;;;;5015598;28;20052;-63
2022/07/03 13:15:01;;;;;;;4.38;1.50;;;24.20;86.30;;;;;;5029133;28;20489;-64